sensor_id;sensor_type;location;lat;lon;timestamp;P1;durP1;ratioP1;P2;durP2;ratioP2
52124;SDS011;38119;52.710;6.398;2023-06-19T00:02:20;8.88;;;7.72;;
52124;SDS011;38119;52.710;6.398;2023-06-19T00:04:45;12.07;;;8.63;;
52124;SDS011;38119;52.710;6.398;2023-06-19T00:07:11;11.88;;;8.27;;
52124;SDS011;38119;52.710;6.398;2023-06-19T00:09:37;10.32;;;7.80;;
52124;SDS011;38119;52.710;6.398;2023-06-19T00:12:02;8.68;;;7.78;;
52124;SDS011;38119;52.710;6.398;2023-06-19T00:14:29;12.05;;;8.20;;
52124;SDS011;38119;52.710;6.398;2023-06-19T00:16:54;11.73;;;8.50;;
52124;SDS011;38119;52.710;6.398;2023-06-19T00:19:21;9.55;;;7.68;;
52124;SDS011;38119;52.710;6.398;2023-06-19T00:21:47;8.40;;;7.35;;
52124;SDS011;38119;52.710;6.398;2023-06-19T00:24:13;12.05;;;8.60;;
52124;SDS011;38119;52.710;6.398;2023-06-19T00:26:38;9.85;;;7.38;;
52124;SDS011;38119;52.710;6.398;2023-06-19T00:29:05;9.70;;;7.93;;
52124;SDS011;38119;52.710;6.398;2023-06-19T00:31:31;9.75;;;8.38;;
52124;SDS011;38119;52.710;6.398;2023-06-19T00:33:57;9.77;;;8.38;;
52124;SDS011;38119;52.710;6.398;2023-06-19T00:36:23;13.38;;;8.20;;
52124;SDS011;38119;52.710;6.398;2023-06-19T00:38:51;9.45;;;7.82;;
52124;SDS011;38119;52.710;6.398;2023-06-19T00:41:16;10.40;;;8.13;;
52124;SDS011;38119;52.710;6.398;2023-06-19T00:43:43;10.02;;;7.53;;
52124;SDS011;38119;52.710;6.398;2023-06-19T00:46:09;10.35;;;8.10;;
52124;SDS011;38119;52.710;6.398;2023-06-19T00:48:36;11.73;;;8.13;;
52124;SDS011;38119;52.710;6.398;2023-06-19T00:51:02;10.32;;;8.10;;
52124;SDS011;38119;52.710;6.398;2023-06-19T00:53:28;8.90;;;7.60;;
52124;SDS011;38119;52.710;6.398;2023-06-19T00:55:55;11.27;;;8.45;;
52124;SDS011;38119;52.710;6.398;2023-06-19T00:58:22;10.45;;;8.15;;
52124;SDS011;38119;52.710;6.398;2023-06-19T01:00:48;10.20;;;8.32;;
52124;SDS011;38119;52.710;6.398;2023-06-19T01:03:14;10.20;;;7.70;;
52124;SDS011;38119;52.710;6.398;2023-06-19T01:05:41;11.18;;;7.90;;
52124;SDS011;38119;52.710;6.398;2023-06-19T01:08:13;10.70;;;8.20;;
52124;SDS011;38119;52.710;6.398;2023-06-19T01:10:40;11.70;;;8.10;;
52124;SDS011;38119;52.710;6.398;2023-06-19T01:13:18;12.23;;;7.97;;
52124;SDS011;38119;52.710;6.398;2023-06-19T01:15:48;9.40;;;7.88;;
52124;SDS011;38119;52.710;6.398;2023-06-19T01:18:15;11.40;;;8.45;;
52124;SDS011;38119;52.710;6.398;2023-06-19T01:20:41;13.63;;;8.35;;
52124;SDS011;38119;52.710;6.398;2023-06-19T01:23:08;9.13;;;8.23;;
52124;SDS011;38119;52.710;6.398;2023-06-19T01:25:34;9.57;;;8.05;;
52124;SDS011;38119;52.710;6.398;2023-06-19T01:28:00;9.80;;;7.90;;
52124;SDS011;38119;52.710;6.398;2023-06-19T01:30:29;10.13;;;8.02;;
52124;SDS011;38119;52.710;6.398;2023-06-19T01:35:42;9.32;;;8.27;;
52124;SDS011;38119;52.710;6.398;2023-06-19T01:38:11;10.10;;;8.60;;
52124;SDS011;38119;52.710;6.398;2023-06-19T01:40:37;10.80;;;8.18;;
52124;SDS011;38119;52.710;6.398;2023-06-19T01:43:05;9.52;;;8.25;;
52124;SDS011;38119;52.710;6.398;2023-06-19T01:45:33;11.13;;;8.38;;
52124;SDS011;38119;52.710;6.398;2023-06-19T01:47:58;10.80;;;8.43;;
52124;SDS011;38119;52.710;6.398;2023-06-19T01:50:24;11.55;;;8.25;;
52124;SDS011;38119;52.710;6.398;2023-06-19T01:52:50;13.50;;;9.18;;
52124;SDS011;38119;52.710;6.398;2023-06-19T01:55:16;9.65;;;8.23;;
52124;SDS011;38119;52.710;6.398;2023-06-19T01:57:43;9.45;;;7.82;;
52124;SDS011;38119;52.710;6.398;2023-06-19T02:00:10;11.55;;;7.90;;
52124;SDS011;38119;52.710;6.398;2023-06-19T02:02:37;10.68;;;8.85;;
52124;SDS011;38119;52.710;6.398;2023-06-19T02:05:02;9.75;;;8.70;;
52124;SDS011;38119;52.710;6.398;2023-06-19T02:07:29;11.20;;;8.80;;
52124;SDS011;38119;52.710;6.398;2023-06-19T02:09:55;10.15;;;8.48;;
52124;SDS011;38119;52.710;6.398;2023-06-19T02:12:21;9.45;;;7.93;;
52124;SDS011;38119;52.710;6.398;2023-06-19T02:14:47;13.52;;;8.20;;
52124;SDS011;38119;52.710;6.398;2023-06-19T02:17:12;9.75;;;8.15;;
52124;SDS011;38119;52.710;6.398;2023-06-19T02:19:38;10.02;;;8.13;;
52124;SDS011;38119;52.710;6.398;2023-06-19T02:22:03;10.13;;;7.95;;
52124;SDS011;38119;52.710;6.398;2023-06-19T02:24:29;10.23;;;7.88;;
52124;SDS011;38119;52.710;6.398;2023-06-19T02:26:55;10.40;;;7.72;;
52124;SDS011;38119;52.710;6.398;2023-06-19T02:29:21;11.07;;;8.23;;
52124;SDS011;38119;52.710;6.398;2023-06-19T02:31:47;9.90;;;7.65;;
52124;SDS011;38119;52.710;6.398;2023-06-19T02:34:13;10.88;;;7.35;;
52124;SDS011;38119;52.710;6.398;2023-06-19T02:36:39;9.43;;;7.82;;
52124;SDS011;38119;52.710;6.398;2023-06-19T02:39:04;10.10;;;7.78;;
52124;SDS011;38119;52.710;6.398;2023-06-19T02:41:33;9.75;;;7.43;;
52124;SDS011;38119;52.710;6.398;2023-06-19T02:43:58;11.25;;;7.75;;
52124;SDS011;38119;52.710;6.398;2023-06-19T02:46:24;8.70;;;7.18;;
52124;SDS011;38119;52.710;6.398;2023-06-19T02:48:49;10.48;;;7.72;;
52124;SDS011;38119;52.710;6.398;2023-06-19T02:51:15;9.38;;;7.90;;
52124;SDS011;38119;52.710;6.398;2023-06-19T02:53:40;13.27;;;8.05;;
52124;SDS011;38119;52.710;6.398;2023-06-19T02:56:06;10.20;;;7.95;;
52124;SDS011;38119;52.710;6.398;2023-06-19T02:58:33;9.00;;;7.72;;
52124;SDS011;38119;52.710;6.398;2023-06-19T03:00:59;9.20;;;7.22;;
52124;SDS011;38119;52.710;6.398;2023-06-19T03:03:25;9.90;;;7.43;;
52124;SDS011;38119;52.710;6.398;2023-06-19T03:05:51;11.27;;;7.30;;
52124;SDS011;38119;52.710;6.398;2023-06-19T03:08:16;12.25;;;7.65;;
52124;SDS011;38119;52.710;6.398;2023-06-19T03:10:42;11.50;;;7.35;;
52124;SDS011;38119;52.710;6.398;2023-06-19T03:13:08;8.90;;;6.93;;
52124;SDS011;38119;52.710;6.398;2023-06-19T03:15:33;8.85;;;6.20;;
52124;SDS011;38119;52.710;6.398;2023-06-19T03:17:59;7.00;;;6.15;;
52124;SDS011;38119;52.710;6.398;2023-06-19T03:20:28;7.72;;;6.13;;
52124;SDS011;38119;52.710;6.398;2023-06-19T03:22:53;7.90;;;5.95;;
52124;SDS011;38119;52.710;6.398;2023-06-19T03:25:19;11.45;;;5.60;;
52124;SDS011;38119;52.710;6.398;2023-06-19T03:27:45;7.00;;;5.00;;
52124;SDS011;38119;52.710;6.398;2023-06-19T03:30:11;6.00;;;4.70;;
52124;SDS011;38119;52.710;6.398;2023-06-19T03:32:37;8.80;;;5.45;;
52124;SDS011;38119;52.710;6.398;2023-06-19T03:35:03;8.73;;;5.90;;
52124;SDS011;38119;52.710;6.398;2023-06-19T03:37:30;9.48;;;4.95;;
52124;SDS011;38119;52.710;6.398;2023-06-19T03:39:57;6.30;;;4.85;;
52124;SDS011;38119;52.710;6.398;2023-06-19T03:42:23;7.15;;;4.95;;
52124;SDS011;38119;52.710;6.398;2023-06-19T03:44:49;5.43;;;4.07;;
52124;SDS011;38119;52.710;6.398;2023-06-19T03:47:14;5.82;;;4.22;;
52124;SDS011;38119;52.710;6.398;2023-06-19T03:49:41;8.85;;;4.93;;
52124;SDS011;38119;52.710;6.398;2023-06-19T03:52:07;5.78;;;4.07;;
52124;SDS011;38119;52.710;6.398;2023-06-19T03:54:33;6.68;;;4.00;;
52124;SDS011;38119;52.710;6.398;2023-06-19T03:56:58;6.32;;;3.97;;
52124;SDS011;38119;52.710;6.398;2023-06-19T03:59:24;7.30;;;3.97;;
52124;SDS011;38119;52.710;6.398;2023-06-19T04:01:49;4.93;;;3.78;;
52124;SDS011;38119;52.710;6.398;2023-06-19T04:04:15;4.72;;;3.45;;
52124;SDS011;38119;52.710;6.398;2023-06-19T04:06:40;5.95;;;4.03;;
52124;SDS011;38119;52.710;6.398;2023-06-19T04:09:06;7.47;;;4.20;;
52124;SDS011;38119;52.710;6.398;2023-06-19T04:11:32;5.93;;;3.72;;
52124;SDS011;38119;52.710;6.398;2023-06-19T04:13:57;6.55;;;4.13;;
52124;SDS011;38119;52.710;6.398;2023-06-19T04:16:23;5.90;;;3.95;;
52124;SDS011;38119;52.710;6.398;2023-06-19T04:18:49;7.95;;;3.88;;
52124;SDS011;38119;52.710;6.398;2023-06-19T04:21:14;5.43;;;4.10;;
52124;SDS011;38119;52.710;6.398;2023-06-19T04:23:40;8.07;;;3.95;;
52124;SDS011;38119;52.710;6.398;2023-06-19T04:26:06;6.32;;;4.10;;
52124;SDS011;38119;52.710;6.398;2023-06-19T04:28:31;6.88;;;3.95;;
52124;SDS011;38119;52.710;6.398;2023-06-19T04:30:57;5.63;;;4.30;;
52124;SDS011;38119;52.710;6.398;2023-06-19T04:33:28;6.07;;;4.18;;
52124;SDS011;38119;52.710;6.398;2023-06-19T04:35:54;7.15;;;3.97;;
52124;SDS011;38119;52.710;6.398;2023-06-19T04:38:20;5.70;;;3.80;;
52124;SDS011;38119;52.710;6.398;2023-06-19T04:40:52;7.32;;;4.35;;
52124;SDS011;38119;52.710;6.398;2023-06-19T04:43:17;5.75;;;4.25;;
52124;SDS011;38119;52.710;6.398;2023-06-19T04:45:43;5.43;;;3.80;;
52124;SDS011;38119;52.710;6.398;2023-06-19T04:48:09;8.30;;;3.88;;
52124;SDS011;38119;52.710;6.398;2023-06-19T04:50:36;6.10;;;4.10;;
52124;SDS011;38119;52.710;6.398;2023-06-19T04:53:02;7.15;;;4.50;;
52124;SDS011;38119;52.710;6.398;2023-06-19T04:55:28;6.38;;;4.30;;
52124;SDS011;38119;52.710;6.398;2023-06-19T04:57:53;5.50;;;4.18;;
52124;SDS011;38119;52.710;6.398;2023-06-19T05:00:20;6.95;;;4.50;;
52124;SDS011;38119;52.710;6.398;2023-06-19T05:02:48;6.63;;;4.55;;
52124;SDS011;38119;52.710;6.398;2023-06-19T05:05:14;5.97;;;4.10;;
52124;SDS011;38119;52.710;6.398;2023-06-19T05:07:41;6.03;;;4.40;;
52124;SDS011;38119;52.710;6.398;2023-06-19T05:10:07;6.15;;;4.80;;
52124;SDS011;38119;52.710;6.398;2023-06-19T05:12:34;6.53;;;5.05;;
52124;SDS011;38119;52.710;6.398;2023-06-19T05:15:00;7.80;;;4.45;;
52124;SDS011;38119;52.710;6.398;2023-06-19T05:17:26;5.72;;;4.50;;
52124;SDS011;38119;52.710;6.398;2023-06-19T05:19:51;6.57;;;4.75;;
52124;SDS011;38119;52.710;6.398;2023-06-19T05:22:17;7.15;;;4.82;;
52124;SDS011;38119;52.710;6.398;2023-06-19T05:24:43;6.47;;;4.45;;
52124;SDS011;38119;52.710;6.398;2023-06-19T05:27:10;7.88;;;5.00;;
52124;SDS011;38119;52.710;6.398;2023-06-19T05:29:35;6.90;;;4.88;;
52124;SDS011;38119;52.710;6.398;2023-06-19T05:32:01;7.47;;;4.82;;
52124;SDS011;38119;52.710;6.398;2023-06-19T05:34:27;7.90;;;4.30;;
52124;SDS011;38119;52.710;6.398;2023-06-19T05:36:52;6.72;;;4.50;;
52124;SDS011;38119;52.710;6.398;2023-06-19T05:39:18;7.82;;;4.65;;
52124;SDS011;38119;52.710;6.398;2023-06-19T05:41:44;5.75;;;4.70;;
52124;SDS011;38119;52.710;6.398;2023-06-19T05:44:11;6.40;;;4.45;;
52124;SDS011;38119;52.710;6.398;2023-06-19T05:46:40;6.97;;;4.53;;
52124;SDS011;38119;52.710;6.398;2023-06-19T05:49:06;5.57;;;4.38;;
52124;SDS011;38119;52.710;6.398;2023-06-19T05:51:32;7.05;;;4.55;;
52124;SDS011;38119;52.710;6.398;2023-06-19T05:53:57;6.90;;;4.72;;
52124;SDS011;38119;52.710;6.398;2023-06-19T05:56:28;7.40;;;4.88;;
52124;SDS011;38119;52.710;6.398;2023-06-19T05:58:58;8.07;;;5.65;;
52124;SDS011;38119;52.710;6.398;2023-06-19T06:01:25;6.93;;;5.63;;
52124;SDS011;38119;52.710;6.398;2023-06-19T06:03:52;9.70;;;5.40;;
52124;SDS011;38119;52.710;6.398;2023-06-19T06:06:19;7.03;;;5.05;;
52124;SDS011;38119;52.710;6.398;2023-06-19T06:08:44;7.10;;;5.90;;
52124;SDS011;38119;52.710;6.398;2023-06-19T06:11:10;8.80;;;7.20;;
52124;SDS011;38119;52.710;6.398;2023-06-19T06:13:36;10.70;;;7.90;;
52124;SDS011;38119;52.710;6.398;2023-06-19T06:16:01;10.30;;;7.40;;
52124;SDS011;38119;52.710;6.398;2023-06-19T06:18:27;11.45;;;8.57;;
52124;SDS011;38119;52.710;6.398;2023-06-19T06:20:52;11.48;;;9.20;;
52124;SDS011;38119;52.710;6.398;2023-06-19T06:23:18;13.85;;;9.20;;
52124;SDS011;38119;52.710;6.398;2023-06-19T06:25:43;13.32;;;9.60;;
52124;SDS011;38119;52.710;6.398;2023-06-19T06:28:10;13.25;;;9.52;;
52124;SDS011;38119;52.710;6.398;2023-06-19T06:30:36;11.13;;;8.93;;
52124;SDS011;38119;52.710;6.398;2023-06-19T06:33:04;12.07;;;8.63;;
52124;SDS011;38119;52.710;6.398;2023-06-19T06:35:29;12.30;;;9.43;;
52124;SDS011;38119;52.710;6.398;2023-06-19T06:37:55;11.25;;;9.00;;
52124;SDS011;38119;52.710;6.398;2023-06-19T06:40:20;11.10;;;9.23;;
52124;SDS011;38119;52.710;6.398;2023-06-19T06:42:46;16.95;;;9.02;;
52124;SDS011;38119;52.710;6.398;2023-06-19T06:45:12;14.93;;;9.13;;
52124;SDS011;38119;52.710;6.398;2023-06-19T06:47:38;11.95;;;8.75;;
52124;SDS011;38119;52.710;6.398;2023-06-19T06:50:05;11.38;;;8.43;;
52124;SDS011;38119;52.710;6.398;2023-06-19T06:52:32;10.05;;;7.80;;
52124;SDS011;38119;52.710;6.398;2023-06-19T06:54:57;10.35;;;8.23;;
52124;SDS011;38119;52.710;6.398;2023-06-19T06:57:23;9.57;;;8.00;;
52124;SDS011;38119;52.710;6.398;2023-06-19T06:59:49;9.77;;;7.90;;
52124;SDS011;38119;52.710;6.398;2023-06-19T07:02:14;8.63;;;7.57;;
52124;SDS011;38119;52.710;6.398;2023-06-19T07:04:40;12.43;;;8.60;;
52124;SDS011;38119;52.710;6.398;2023-06-19T07:07:05;9.88;;;7.57;;
52124;SDS011;38119;52.710;6.398;2023-06-19T07:09:32;9.13;;;7.93;;
52124;SDS011;38119;52.710;6.398;2023-06-19T07:11:58;8.40;;;7.50;;
52124;SDS011;38119;52.710;6.398;2023-06-19T07:14:23;8.48;;;7.05;;
52124;SDS011;38119;52.710;6.398;2023-06-19T07:16:49;12.73;;;7.30;;
52124;SDS011;38119;52.710;6.398;2023-06-19T07:19:15;11.45;;;7.72;;
52124;SDS011;38119;52.710;6.398;2023-06-19T07:21:41;9.77;;;6.90;;
52124;SDS011;38119;52.710;6.398;2023-06-19T07:24:07;7.72;;;6.47;;
52124;SDS011;38119;52.710;6.398;2023-06-19T07:26:33;9.75;;;7.18;;
52124;SDS011;38119;52.710;6.398;2023-06-19T07:28:59;9.98;;;6.10;;
52124;SDS011;38119;52.710;6.398;2023-06-19T07:31:24;9.23;;;5.88;;
52124;SDS011;38119;52.710;6.398;2023-06-19T07:33:50;8.60;;;7.05;;
52124;SDS011;38119;52.710;6.398;2023-06-19T07:36:16;11.20;;;8.27;;
52124;SDS011;38119;52.710;6.398;2023-06-19T07:38:42;9.35;;;8.35;;
52124;SDS011;38119;52.710;6.398;2023-06-19T07:41:08;10.38;;;9.35;;
52124;SDS011;38119;52.710;6.398;2023-06-19T07:43:35;15.05;;;9.98;;
52124;SDS011;38119;52.710;6.398;2023-06-19T07:46:01;13.15;;;10.80;;
52124;SDS011;38119;52.710;6.398;2023-06-19T07:48:27;12.88;;;10.75;;
52124;SDS011;38119;52.710;6.398;2023-06-19T07:50:53;12.48;;;11.18;;
52124;SDS011;38119;52.710;6.398;2023-06-19T07:53:19;13.05;;;11.75;;
52124;SDS011;38119;52.710;6.398;2023-06-19T07:55:44;14.02;;;12.55;;
52124;SDS011;38119;52.710;6.398;2023-06-19T07:58:10;14.32;;;12.93;;
52124;SDS011;38119;52.710;6.398;2023-06-19T08:00:36;14.50;;;12.32;;
52124;SDS011;38119;52.710;6.398;2023-06-19T08:03:02;12.77;;;10.80;;
52124;SDS011;38119;52.710;6.398;2023-06-19T08:05:27;12.90;;;10.35;;
52124;SDS011;38119;52.710;6.398;2023-06-19T08:07:53;12.82;;;10.68;;
52124;SDS011;38119;52.710;6.398;2023-06-19T08:10:19;14.65;;;12.07;;
52124;SDS011;38119;52.710;6.398;2023-06-19T08:12:44;13.60;;;12.20;;
52124;SDS011;38119;52.710;6.398;2023-06-19T08:15:10;13.48;;;12.13;;
52124;SDS011;38119;52.710;6.398;2023-06-19T08:17:38;13.77;;;12.48;;
52124;SDS011;38119;52.710;6.398;2023-06-19T08:20:04;14.43;;;12.93;;
52124;SDS011;38119;52.710;6.398;2023-06-19T08:22:30;14.02;;;12.55;;
52124;SDS011;38119;52.710;6.398;2023-06-19T08:24:56;13.75;;;12.43;;
52124;SDS011;38119;52.710;6.398;2023-06-19T08:27:21;13.30;;;12.05;;
52124;SDS011;38119;52.710;6.398;2023-06-19T08:29:47;13.73;;;11.23;;
52124;SDS011;38119;52.710;6.398;2023-06-19T08:32:13;12.68;;;10.60;;
52124;SDS011;38119;52.710;6.398;2023-06-19T08:34:38;11.40;;;9.38;;
52124;SDS011;38119;52.710;6.398;2023-06-19T08:37:05;9.65;;;8.65;;
52124;SDS011;38119;52.710;6.398;2023-06-19T08:39:31;9.93;;;8.90;;
52124;SDS011;38119;52.710;6.398;2023-06-19T08:41:56;9.95;;;8.55;;
52124;SDS011;38119;52.710;6.398;2023-06-19T08:44:22;10.60;;;8.30;;
52124;SDS011;38119;52.710;6.398;2023-06-19T08:46:48;11.35;;;7.30;;
52124;SDS011;38119;52.710;6.398;2023-06-19T08:49:13;10.30;;;7.82;;
52124;SDS011;38119;52.710;6.398;2023-06-19T08:51:40;9.38;;;7.82;;
52124;SDS011;38119;52.710;6.398;2023-06-19T08:54:06;9.10;;;7.78;;
52124;SDS011;38119;52.710;6.398;2023-06-19T08:56:33;8.77;;;7.70;;
52124;SDS011;38119;52.710;6.398;2023-06-19T08:59:16;10.55;;;7.25;;
52124;SDS011;38119;52.710;6.398;2023-06-19T09:01:49;8.88;;;7.32;;
52124;SDS011;38119;52.710;6.398;2023-06-19T09:04:21;9.27;;;7.65;;
52124;SDS011;38119;52.710;6.398;2023-06-19T09:06:52;8.75;;;6.93;;
52124;SDS011;38119;52.710;6.398;2023-06-19T09:09:20;8.52;;;7.18;;
52124;SDS011;38119;52.710;6.398;2023-06-19T09:14:39;14.77;;;7.80;;
52124;SDS011;38119;52.710;6.398;2023-06-19T09:17:07;13.20;;;8.77;;
52124;SDS011;38119;52.710;6.398;2023-06-19T09:19:35;10.05;;;7.03;;
52124;SDS011;38119;52.710;6.398;2023-06-19T09:22:02;10.07;;;6.57;;
52124;SDS011;38119;52.710;6.398;2023-06-19T09:24:39;9.15;;;7.65;;
52124;SDS011;38119;52.710;6.398;2023-06-19T09:27:16;7.63;;;6.80;;
52124;SDS011;38119;52.710;6.398;2023-06-19T09:29:46;9.38;;;7.32;;
52124;SDS011;38119;52.710;6.398;2023-06-19T09:34:47;10.50;;;8.52;;
52124;SDS011;38119;52.710;6.398;2023-06-19T09:37:14;13.13;;;9.35;;
52124;SDS011;38119;52.710;6.398;2023-06-19T09:39:41;17.27;;;8.82;;
52124;SDS011;38119;52.710;6.398;2023-06-19T09:42:07;10.82;;;8.05;;
52124;SDS011;38119;52.710;6.398;2023-06-19T09:44:36;13.00;;;8.70;;
52124;SDS011;38119;52.710;6.398;2023-06-19T09:47:06;11.85;;;8.32;;
52124;SDS011;38119;52.710;6.398;2023-06-19T09:49:58;10.77;;;8.93;;
52124;SDS011;38119;52.710;6.398;2023-06-19T09:52:26;13.75;;;10.15;;
52124;SDS011;38119;52.710;6.398;2023-06-19T09:54:53;12.93;;;10.82;;
52124;SDS011;38119;52.710;6.398;2023-06-19T09:57:20;15.45;;;10.63;;
52124;SDS011;38119;52.710;6.398;2023-06-19T09:59:53;13.27;;;11.02;;
52124;SDS011;38119;52.710;6.398;2023-06-19T10:02:24;14.10;;;10.48;;
52124;SDS011;38119;52.710;6.398;2023-06-19T10:04:53;12.80;;;10.02;;
52124;SDS011;38119;52.710;6.398;2023-06-19T10:07:26;12.85;;;9.82;;
52124;SDS011;38119;52.710;6.398;2023-06-19T10:10:02;11.07;;;9.30;;
52124;SDS011;38119;52.710;6.398;2023-06-19T10:17:52;10.90;;;9.13;;
52124;SDS011;38119;52.710;6.398;2023-06-19T10:20:25;14.52;;;8.07;;
52124;SDS011;38119;52.710;6.398;2023-06-19T10:23:17;16.45;;;8.80;;
52124;SDS011;38119;52.710;6.398;2023-06-19T10:25:44;12.55;;;7.72;;
52124;SDS011;38119;52.710;6.398;2023-06-19T10:30:44;10.23;;;7.20;;
52124;SDS011;38119;52.710;6.398;2023-06-19T10:33:10;10.25;;;7.55;;
52124;SDS011;38119;52.710;6.398;2023-06-19T10:35:39;9.18;;;6.88;;
52124;SDS011;38119;52.710;6.398;2023-06-19T10:38:06;9.52;;;7.22;;
52124;SDS011;38119;52.710;6.398;2023-06-19T10:40:32;13.48;;;7.57;;
52124;SDS011;38119;52.710;6.398;2023-06-19T10:42:58;14.15;;;8.18;;
52124;SDS011;38119;52.710;6.398;2023-06-19T10:45:23;11.90;;;8.60;;
52124;SDS011;38119;52.710;6.398;2023-06-19T10:47:53;10.77;;;8.27;;
52124;SDS011;38119;52.710;6.398;2023-06-19T10:50:19;10.00;;;8.07;;
52124;SDS011;38119;52.710;6.398;2023-06-19T10:52:45;10.90;;;8.60;;
52124;SDS011;38119;52.710;6.398;2023-06-19T10:55:13;9.50;;;8.45;;
52124;SDS011;38119;52.710;6.398;2023-06-19T10:57:48;11.00;;;8.68;;
52124;SDS011;38119;52.710;6.398;2023-06-19T11:00:30;11.40;;;8.30;;
52124;SDS011;38119;52.710;6.398;2023-06-19T11:02:57;11.48;;;9.68;;
52124;SDS011;38119;52.710;6.398;2023-06-19T11:05:24;12.43;;;8.90;;
52124;SDS011;38119;52.710;6.398;2023-06-19T11:07:57;16.58;;;9.65;;
52124;SDS011;38119;52.710;6.398;2023-06-19T11:10:25;10.07;;;8.00;;
52124;SDS011;38119;52.710;6.398;2023-06-19T11:12:53;10.13;;;8.38;;
52124;SDS011;38119;52.710;6.398;2023-06-19T11:15:20;10.40;;;8.70;;
52124;SDS011;38119;52.710;6.398;2023-06-19T11:17:56;11.40;;;9.15;;
52124;SDS011;38119;52.710;6.398;2023-06-19T11:20:23;11.82;;;8.50;;
52124;SDS011;38119;52.710;6.398;2023-06-19T11:22:53;11.45;;;7.85;;
52124;SDS011;38119;52.710;6.398;2023-06-19T11:25:23;11.63;;;8.20;;
52124;SDS011;38119;52.710;6.398;2023-06-19T11:28:00;10.93;;;8.27;;
52124;SDS011;38119;52.710;6.398;2023-06-19T11:30:31;11.57;;;9.52;;
52124;SDS011;38119;52.710;6.398;2023-06-19T11:32:58;11.50;;;9.40;;
52124;SDS011;38119;52.710;6.398;2023-06-19T11:35:24;25.33;;;10.45;;
52124;SDS011;38119;52.710;6.398;2023-06-19T11:37:50;11.55;;;10.23;;
52124;SDS011;38119;52.710;6.398;2023-06-19T11:40:16;15.10;;;10.50;;
52124;SDS011;38119;52.710;6.398;2023-06-19T11:42:51;13.38;;;10.15;;
52124;SDS011;38119;52.710;6.398;2023-06-19T11:45:17;14.23;;;10.98;;
52124;SDS011;38119;52.710;6.398;2023-06-19T11:47:44;12.30;;;10.38;;
52124;SDS011;38119;52.710;6.398;2023-06-19T11:50:11;12.40;;;11.10;;
52124;SDS011;38119;52.710;6.398;2023-06-19T11:52:38;12.68;;;11.23;;
52124;SDS011;38119;52.710;6.398;2023-06-19T11:55:04;11.07;;;9.02;;
52124;SDS011;38119;52.710;6.398;2023-06-19T11:57:30;11.50;;;9.95;;
52124;SDS011;38119;52.710;6.398;2023-06-19T11:59:58;15.98;;;10.00;;
52124;SDS011;38119;52.710;6.398;2023-06-19T12:02:23;11.48;;;9.60;;
52124;SDS011;38119;52.710;6.398;2023-06-19T12:04:49;13.52;;;10.45;;
52124;SDS011;38119;52.710;6.398;2023-06-19T12:07:14;14.75;;;10.75;;
52124;SDS011;38119;52.710;6.398;2023-06-19T12:09:40;12.95;;;10.95;;
52124;SDS011;38119;52.710;6.398;2023-06-19T12:12:08;12.50;;;10.35;;
52124;SDS011;38119;52.710;6.398;2023-06-19T12:14:34;15.27;;;10.23;;
52124;SDS011;38119;52.710;6.398;2023-06-19T12:16:59;14.50;;;10.45;;
52124;SDS011;38119;52.710;6.398;2023-06-19T12:19:26;14.88;;;11.65;;
52124;SDS011;38119;52.710;6.398;2023-06-19T12:21:52;12.50;;;9.88;;
52124;SDS011;38119;52.710;6.398;2023-06-19T12:24:18;16.65;;;10.60;;
52124;SDS011;38119;52.710;6.398;2023-06-19T12:26:44;15.63;;;10.88;;
52124;SDS011;38119;52.710;6.398;2023-06-19T12:29:10;12.93;;;10.80;;
52124;SDS011;38119;52.710;6.398;2023-06-19T12:31:35;15.32;;;10.65;;
52124;SDS011;38119;52.710;6.398;2023-06-19T12:34:01;15.45;;;11.13;;
52124;SDS011;38119;52.710;6.398;2023-06-19T12:36:27;14.18;;;11.55;;
52124;SDS011;38119;52.710;6.398;2023-06-19T12:38:53;14.70;;;10.18;;
52124;SDS011;38119;52.710;6.398;2023-06-19T12:41:22;18.45;;;10.05;;
52124;SDS011;38119;52.710;6.398;2023-06-19T12:43:47;13.57;;;11.13;;
52124;SDS011;38119;52.710;6.398;2023-06-19T12:46:14;12.75;;;10.70;;
52124;SDS011;38119;52.710;6.398;2023-06-19T12:48:40;14.95;;;11.57;;
52124;SDS011;38119;52.710;6.398;2023-06-19T12:51:06;16.33;;;11.65;;
52124;SDS011;38119;52.710;6.398;2023-06-19T12:53:32;12.93;;;10.82;;
52124;SDS011;38119;52.710;6.398;2023-06-19T12:55:58;13.23;;;11.20;;
52124;SDS011;38119;52.710;6.398;2023-06-19T12:58:24;11.13;;;9.80;;
52124;SDS011;38119;52.710;6.398;2023-06-19T13:00:50;13.75;;;10.00;;
52124;SDS011;38119;52.710;6.398;2023-06-19T13:03:16;12.57;;;10.20;;
52124;SDS011;38119;52.710;6.398;2023-06-19T13:05:43;10.52;;;9.43;;
52124;SDS011;38119;52.710;6.398;2023-06-19T13:08:11;13.27;;;10.50;;
52124;SDS011;38119;52.710;6.398;2023-06-19T13:10:37;12.25;;;10.02;;
52124;SDS011;38119;52.710;6.398;2023-06-19T13:13:03;15.07;;;10.55;;
52124;SDS011;38119;52.710;6.398;2023-06-19T13:15:30;13.85;;;9.68;;
52124;SDS011;38119;52.710;6.398;2023-06-19T13:17:58;12.68;;;9.98;;
52124;SDS011;38119;52.710;6.398;2023-06-19T13:20:24;11.23;;;8.80;;
52124;SDS011;38119;52.710;6.398;2023-06-19T13:22:50;11.00;;;8.38;;
52124;SDS011;38119;52.710;6.398;2023-06-19T13:25:16;11.57;;;9.27;;
52124;SDS011;38119;52.710;6.398;2023-06-19T13:27:42;11.82;;;9.55;;
52124;SDS011;38119;52.710;6.398;2023-06-19T13:30:08;13.23;;;9.88;;
52124;SDS011;38119;52.710;6.398;2023-06-19T13:32:34;14.43;;;11.38;;
52124;SDS011;38119;52.710;6.398;2023-06-19T13:34:59;11.63;;;9.95;;
52124;SDS011;38119;52.710;6.398;2023-06-19T13:37:26;12.23;;;10.32;;
52124;SDS011;38119;52.710;6.398;2023-06-19T13:39:51;12.52;;;9.20;;
52124;SDS011;38119;52.710;6.398;2023-06-19T13:42:17;14.05;;;10.00;;
52124;SDS011;38119;52.710;6.398;2023-06-19T13:44:42;13.35;;;9.85;;
52124;SDS011;38119;52.710;6.398;2023-06-19T13:47:08;12.38;;;8.73;;
52124;SDS011;38119;52.710;6.398;2023-06-19T13:49:34;13.40;;;8.98;;
52124;SDS011;38119;52.710;6.398;2023-06-19T13:51:59;10.63;;;7.63;;
52124;SDS011;38119;52.710;6.398;2023-06-19T13:54:25;12.05;;;7.32;;
52124;SDS011;38119;52.710;6.398;2023-06-19T13:56:51;10.93;;;6.93;;
52124;SDS011;38119;52.710;6.398;2023-06-19T13:59:16;8.95;;;6.00;;
52124;SDS011;38119;52.710;6.398;2023-06-19T14:01:42;9.70;;;5.72;;
52124;SDS011;38119;52.710;6.398;2023-06-19T14:04:08;8.07;;;5.05;;
52124;SDS011;38119;52.710;6.398;2023-06-19T14:06:34;8.98;;;5.47;;
52124;SDS011;38119;52.710;6.398;2023-06-19T14:09:00;7.53;;;5.60;;
52124;SDS011;38119;52.710;6.398;2023-06-19T14:11:26;9.30;;;5.93;;
52124;SDS011;38119;52.710;6.398;2023-06-19T14:13:51;10.60;;;6.20;;
52124;SDS011;38119;52.710;6.398;2023-06-19T14:16:17;9.10;;;6.30;;
52124;SDS011;38119;52.710;6.398;2023-06-19T14:18:42;7.25;;;5.25;;
52124;SDS011;38119;52.710;6.398;2023-06-19T14:21:08;10.10;;;5.68;;
52124;SDS011;38119;52.710;6.398;2023-06-19T14:23:33;7.55;;;5.70;;
52124;SDS011;38119;52.710;6.398;2023-06-19T14:26:04;6.95;;;5.13;;
52124;SDS011;38119;52.710;6.398;2023-06-19T14:28:29;5.47;;;4.80;;
52124;SDS011;38119;52.710;6.398;2023-06-19T14:30:55;7.80;;;5.00;;
52124;SDS011;38119;52.710;6.398;2023-06-19T14:33:20;5.97;;;4.13;;
52124;SDS011;38119;52.710;6.398;2023-06-19T14:35:46;4.95;;;3.90;;
52124;SDS011;38119;52.710;6.398;2023-06-19T14:38:14;8.32;;;4.50;;
52124;SDS011;38119;52.710;6.398;2023-06-19T14:40:41;5.63;;;4.38;;
52124;SDS011;38119;52.710;6.398;2023-06-19T14:43:07;6.45;;;4.65;;
52124;SDS011;38119;52.710;6.398;2023-06-19T14:45:34;5.18;;;4.28;;
52124;SDS011;38119;52.710;6.398;2023-06-19T14:48:00;7.45;;;4.70;;
52124;SDS011;38119;52.710;6.398;2023-06-19T14:50:27;6.47;;;4.40;;
52124;SDS011;38119;52.710;6.398;2023-06-19T14:52:52;6.30;;;4.00;;